CheckWX is a tool to help pilots better visualize weather data.  It is not intended as a substitute for an official pre-flight weather briefing.

15:34:46 UTC

KHKY METAR
Hickory Regional Airport
Hickory, North Carolina, USA
Current

42 mins ago

KHKY 201453Z VRB04KT 10SM CLR 25/18 A3003 RMK AO2 SLP146 T02500183 58002
Observed
May-20 @ 14:53 UTC
Wind
  • Variable at 4 KTS
Visibility
10 SM
Flight Rules
VFR
Cloud Levels
  • Clear skies
Temperature
25°C / 77°F
Dewpoint
18°C / 64°F
Humidity
65%
Altimeter
30.03" Hg
Pressure
1016.92 hPa
Previous

2 hours ago

KHKY 201353Z VRB06KT 10SM SCT085 24/19 A3004 RMK AO2 SLP151 T02390189
Observed
May-20 @ 13:53 UTC
Wind
  • Variable at 6 KTS
Visibility
10 SM
Flight Rules
VFR
Cloud Levels
  • Scattered at 8,500' AGL
Temperature
24°C / 75°F
Dewpoint
19°C / 66°F
Humidity
74%
Altimeter
30.04" Hg
Pressure
1017.32 hPa
Previous

3 hours ago

KHKY 201253Z 22006KT 10SM FEW012 22/18 A3004 RMK AO2 SLP151 T02170183
Observed
May-20 @ 12:53 UTC
Wind
  • 220° at 6 KTS
Visibility
10 SM
Flight Rules
VFR
Cloud Levels
  • Few at 1,200' AGL
Temperature
22°C / 72°F
Dewpoint
18°C / 64°F
Humidity
78%
Altimeter
30.04" Hg
Pressure
1017.32 hPa